METAR Data
IDs: Format: Raw Decoded Include TAF

Data at: 2004 UTC 22 Sep 2020

KMFI 221954Z AUTO 20008KT 10SM CLR 25/16 A3007 RMK AO2 SLP180 T02500156
KMFI 221854Z AUTO 19005KT 10SM CLR 24/16 A3009 RMK AO2 SLP187 T02440156
KMFI 221754Z AUTO 23005KT 10SM CLR 23/16 A3011 RMK AO2 SLP195 T02330156 10233 20111 58013
KMFI 221654Z AUTO 00000KT 10SM SCT110 22/15 A3013 RMK AO2 SLP202 T02170150
KMFI 221554Z AUTO VRB05KT 10SM CLR 20/14 A3015 RMK AO2 SLP209 T02000144
KMFI 221454Z AUTO 27007KT 10SM FEW110 18/13 A3015 RMK AO2 SLP211 T01830133 51004
KMFI 221354Z AUTO 24006KT 10SM CLR 16/12 A3015 RMK AO2 SLP211 T01610122
KMFI 221254Z AUTO 22003KT 10SM FEW110 12/11 A3015 RMK AO2 SLP211 T01220106
KMFI 221154Z AUTO 00000KT 10SM CLR 12/10 A3014 RMK AO2 SLP208 T01220100 10133 20122 55001
KMFI 221054Z AUTO 22003KT 10SM CLR 12/10 A3014 RMK AO2 SLP206 T01220100
KMFI 220954Z AUTO 00000KT 10SM CLR 13/10 A3014 RMK AO2 SLP204 T01280100
KMFI 220854Z AUTO 21006KT 10SM CLR 13/10 A3014 RMK AO2 SLP207 T01330100 56005
KMFI 220754Z AUTO 20006KT 10SM CLR 13/09 A3015 RMK AO2 SLP207 T01280094
KMFI 220654Z AUTO 20007KT 10SM CLR 13/09 A3016 RMK AO2 SLP211 T01280094
KMFI 220554Z AUTO 19005KT 10SM CLR 13/09 A3016 RMK AO2 SLP213 60000 T01280094 10178 20122 402220072 58002
KMFI 220454Z AUTO 18007KT 10SM CLR 13/09 A3016 RMK AO2 SLP215 T01280094
KMFI 220354Z AUTO 18007KT 10SM CLR 12/09 A3016 RMK AO2 SLP216 T01220094
KMFI 220254Z AUTO 18006KT 10SM CLR 13/10 A3017 RMK AO2 SLP219 60000 T01280100 53002
KMFI 220154Z AUTO 18003KT 10SM CLR 15/11 A3017 RMK AO2 SLP220 T01500111
KMFI 220054Z AUTO 17007KT 10SM OVC110 16/12 A3015 RMK AO2 RAB2359E15 SLP212 P0000 T01610122
KMFI 220006Z AUTO 17007KT 8SM -RA FEW038 FEW065 BKN110 17/13 A3016 RMK AO2 LTG DSNT N RAB2359 P0000 T01720128
KMFI 212354Z AUTO 17006KT 10SM VCTS FEW065 FEW090 OVC110 18/12 A3016 RMK AO2 LTG DSNT N SLP216 T01780117 10222 20178 51004
KMFI 212351Z AUTO 17006KT 10SM VCTS BKN110 18/12 A3016 RMK AO2 LTG DSNT N
KMFI 212254Z AUTO 20008KT 10SM CLR 19/12 A3017 RMK AO2 LTG DSNT N AND NW SLP219 T01940117
KMFI 212154Z AUTO 19009G20KT 10SM FEW120 21/12 A3015 RMK AO2 SLP210 T02060122
KMFI 212054Z AUTO 19015G22KT 10SM SCT120 21/12 A3016 RMK AO2 SLP213 T02110117 56023
KMFI 211954Z AUTO 18013G21KT 10SM CLR 22/12 A3017 RMK AO2 SLP218 T02220117
KMFI 211854Z AUTO 20012G21KT 10SM CLR 22/12 A3019 RMK AO2 SLP226 T02220117
KMFI 211754Z AUTO 19015G22KT 10SM CLR 21/10 A3023 RMK AO2 SLP236 T02060100 10206 20078 58015
KMFI 211654Z AUTO 20013G20KT 10SM CLR 19/08 A3024 RMK AO2 SLP242 T01890083
KMFI 211554Z AUTO 21012KT 10SM CLR 17/07 A3026 RMK AO2 SLP248 T01720072
KMFI 211454Z AUTO 19010KT 10SM CLR 14/06 A3027 RMK AO2 SLP254 T01390061 58002
KMFI 211354Z AUTO 18008KT 10SM CLR 12/06 A3027 RMK AO2 SLP256 T01170061
KMFI 211254Z AUTO 18010KT 10SM CLR 10/06 A3028 RMK AO2 SLP258 T01000056
KMFI 211154Z AUTO 19006KT 10SM CLR 08/04 A3028 RMK AO2 SLP258 T00780044 10100 20072 50004
KMFI 211054Z AUTO 18004KT 10SM CLR 08/05 A3028 RMK AO2 SLP258 T00830050
KMFI 210954Z AUTO 18005KT 10SM CLR 08/05 A3027 RMK AO2 SLP255 T00830050
KMFI 210854Z AUTO 17007KT 10SM CLR 08/05 A3027 RMK AO2 SLP252 T00830050 58003